SondeTracker

Meteorological Radiosondes Database

Operations

Sounding was ended - last measurement: 2022-12-06 17:04:54z

MAP
About Radiosonde

Number: U1530305

Launch Site: Washington [VA] (US)

Type: RS41

AUX: NO

Frequency: 405.300 MHz

Max Speed: 170 km/h at 13128 m

Average Speed: 95.44 km/h

Max Altitude: 21790 m

Average Ascent Speed: 6.00 m/s

Average Descent Speed: 9.32 m/s

Status: LOST

Status Changes
Launch Site Type AUX Frequency Status Finder Landing Point Description Changes made by
MHz LOST 0, 0 AUTO STATUS: Probably lost in the water [BOT]AUTO-STATUS - 2022-12-06 18:10:20z
APRS Statistics

Received Frames: 109

First Frame [UTC]: 2022-12-06 16:15:59z

Last Frame [UTC]: 2022-12-06 17:04:54z

Receivers: K4KDR-12, KB3ZOX

Flight Time: 00:48:55 h

Distance From First Measurement: 70.54 km

Nearest City: Annapolis Neck [MD] (US) [8.84 km]

Nearest Hunter: KB3ZOX [18.83 km]

Ground Altitude: -123 m

Distance from QTH: 0.00 km

APRS Data
Receiver Number Date/Time [UTC] φ λ Course [°] Speed [km/h] Altitude [m] Description
KB3ZOXU15303052022-12-06 17:04:5438.9243-76.399710110714648Clb=-7.4m/s p=130.3hPa t=-65.0C h=5.0% 405.300MHz Type=RS41-SGP rdzTTGOsonde
KB3ZOXU15303052022-12-06 17:04:2638.9267-76.410110510214866Clb=-6.6m/s p=125.7hPa t=-65.5C h=5.0% 405.300MHz Type=RS41-SGP rdzTTGOsonde
KB3ZOXU15303052022-12-06 17:02:4438.9331-76.44318810215692Clb=-8.3m/s p=109.6hPa t=-69.4C h=4.9% 405.300MHz Type=RS41-SGP TxOff=8h21m rdzTTGOsonde
KB3ZOXU15303052022-12-06 17:02:2238.9334-76.45049612415884Clb=-8.5m/s p=106.1hPa t=-69.3C h=5.5% 405.300MHz Type=RS41-SGP rdzTTGOsonde
KB3ZOXU15303052022-12-06 17:01:5738.934-76.45889011916097Clb=-8.5m/s p=102.4hPa t=-68.5C h=5.0% 405.300MHz Type=RS41-SGP rdzTTGOsonde
KB3ZOXU15303052022-12-06 17:01:2438.935-76.46968311116395Clb=-10.2m/s p=97.4hPa t=-68.9C h=4.7% 405.300MHz Type=RS41-SGP TxOff=8h22m rdzTTGOsonde
KB3ZOXU15303052022-12-06 17:00:4638.9368-76.48169910016748Clb=-9.0m/s p=91.9hPa t=-67.1C h=4.4% 405.300MHz Type=RS41-SGP TxOff=8h22m rdzTTGOsonde
KB3ZOXU15303052022-12-06 17:00:2538.9373-76.4863979116943Clb=-9.6m/s p=89.0hPa t=-65.8C h=3.7% 405.300MHz Type=RS41-SGP rdzTTGOsonde
KB3ZOXU15303052022-12-06 17:00:0438.9375-76.49159710217154Clb=-9.0m/s p=86.0hPa t=-66.6C h=3.8% 405.300MHz Type=RS41-SGP rdzTTGOsonde
KB3ZOXU15303052022-12-06 16:59:2938.9381-76.4992826117506Clb=-9.7m/s p=81.2hPa t=-67.0C h=4.1% 405.300MHz Type=RS41-SGP rdzTTGOsonde
KB3ZOXU15303052022-12-06 16:59:0838.9385-76.5015734317730Clb=-10.5m/s p=78.2hPa t=-67.6C h=3.9% 405.300MHz Type=RS41-SGP rdzTTGOsonde
K4KDR-12U15303052022-12-06 16:58:1438.9389-76.51661242618728Clb=-11.8m/s t=-65.4C h=3.2% p=66.3hPa 405.300 MHz Type=RS41-SGP ser=U1530305 Radiosonde
KB3ZOXU15303052022-12-06 16:56:3338.9384-76.5242985719543Clb=-12.6m/s p=58.1hPa t=-66.4C h=2.8% 405.300MHz Type=RS41-SGP rdzTTGOsonde
K4KDR-12U15303052022-12-06 16:56:1238.9389-76.5276981919875Clb=-14.7m/s t=-66.2C h=2.6% p=55.0hPa 405.300 MHz Type=RS41-SGP ser=U1530305 Radiosonde
K4KDR-12U15303052022-12-06 16:55:1138.9395-76.533874820779Clb=-17.0m/s t=-62.7C h=1.8% p=47.5hPa 405.300 MHz Type=RS41-SGP ser=U1530305 Radiosonde
K4KDR-12U15303052022-12-06 16:54:1038.9358-76.5402626121691Clb=-15.5m/s t=-62.5C h=1.9% p=41.0hPa 405.300 MHz Type=RS41-SGP ser=U1530305 Radiosonde
K4KDR-12U15303052022-12-06 16:52:0838.9248-76.5653736321790Clb=4.6m/s t=-62.5C h=1.9% p=40.3hPa 405.300 MHz Type=RS41-SGP ser=U1530305 Radiosonde
K4KDR-12U15303052022-12-06 16:51:0738.9242-76.5672606721725Clb=7.8m/s t=-62.5C h=1.8% p=40.7hPa 405.300 MHz Type=RS41-SGP ser=U1530305 Radiosonde
KB3ZOXU15303052022-12-06 16:50:2438.9211-76.5724333921469Clb=7.9m/s p=42.4hPa t=-65.5C h=2.5% 405.300MHz Type=RS41-SGP rdzTTGOsonde
K4KDR-12U15303052022-12-06 16:50:0638.9195-76.5739433121336Clb=5.7m/s t=-65.2C h=2.2% p=43.3hPa 405.300 MHz Type=RS41-SGP ser=U1530305 Radiosonde
KB3ZOXU15303052022-12-06 16:50:0438.9195-76.5739453321336Clb=5.7m/s p=43.3hPa t=-65.2C h=2.2% 405.300MHz Type=RS41-SGP rdzTTGOsonde
K4KDR-12U15303052022-12-06 16:48:0438.9151-76.5907733120409Clb=4.2m/s t=-65.6C h=2.6% p=50.3hPa 405.300 MHz Type=RS41-SGP ser=U1530305 Radiosonde
KB3ZOXU15303052022-12-06 16:47:2038.9151-76.59211072620305Clb=6.6m/s p=51.2hPa t=-65.6C h=2.8% 405.300MHz Type=RS41-SGP rdzTTGOsonde
KB3ZOXU15303052022-12-06 16:46:3838.9166-76.5962973120040Clb=4.5m/s p=53.5hPa t=-65.9C h=3.0% 405.300MHz Type=RS41-SGP rdzTTGOsonde
KB3ZOXU15303052022-12-06 16:46:1438.9173-76.59821104619891Clb=6.8m/s p=54.8hPa t=-65.7C h=2.9% 405.300MHz Type=RS41-SGP rdzTTGOsonde
KB3ZOXU15303052022-12-06 16:45:5038.9181-76.60071233919743Clb=6.3m/s p=56.1hPa t=-66.4C h=3.0% 405.300MHz Type=RS41-SGP rdzTTGOsonde
KB3ZOXU15303052022-12-06 16:45:2738.9187-76.6038924619603Clb=3.8m/s p=57.4hPa t=-66.2C h=3.2% 405.300MHz Type=RS41-SGP rdzTTGOsonde
KB3ZOXU15303052022-12-06 16:45:0538.9185-76.607924119467Clb=5.1m/s p=58.7hPa t=-66.4C h=3.2% 405.300MHz Type=RS41-SGP rdzTTGOsonde
KB3ZOXU15303052022-12-06 16:44:3238.9187-76.6114983919266Clb=4.4m/s p=60.7hPa t=-66.0C h=3.5% 405.300MHz Type=RS41-SGP rdzTTGOsonde
KB3ZOXU15303052022-12-06 16:44:0938.9187-76.6142914419124Clb=5.8m/s p=62.1hPa t=-65.4C h=3.6% 405.300MHz Type=RS41-SGP rdzTTGOsonde
K4KDR-12U15303052022-12-06 16:43:5938.9186-76.6158903719047Clb=4.9m/s t=-64.8C h=3.5% p=62.9hPa 405.300 MHz Type=RS41-SGP ser=U1530305 Radiosonde
KB3ZOXU15303052022-12-06 16:43:4038.9185-76.6178914618951Clb=4.7m/s p=63.9hPa t=-65.4C h=3.7% 405.300MHz Type=RS41-SGP rdzTTGOsonde
KB3ZOXU15303052022-12-06 16:43:2038.9186-76.62081055018834Clb=6.6m/s p=65.1hPa t=-66.9C h=4.2% 405.300MHz Type=RS41-SGP rdzTTGOsonde
KB3ZOXU15303052022-12-06 16:42:5738.9194-76.62411075218700Clb=4.5m/s p=66.5hPa t=-67.9C h=4.1% 405.300MHz Type=RS41-SGP rdzTTGOsonde
KB3ZOXU15303052022-12-06 16:42:3438.92-76.6288967418566Clb=6.3m/s p=68.0hPa t=-70.0C h=4.7% 405.300MHz Type=RS41-SGP rdzTTGOsonde
KB3ZOXU15303052022-12-06 16:42:1338.9193-76.6333806518439Clb=7.1m/s p=69.5hPa t=-69.6C h=4.8% 405.300MHz Type=RS41-SGP rdzTTGOsonde
K4KDR-12U15303052022-12-06 16:41:5738.9185-76.6382715718285Clb=6.9m/s t=-68.7C h=4.5% p=71.3hPa 405.300 MHz Type=RS41-SGP ser=U1530305 Radiosonde
KB3ZOXU15303052022-12-06 16:41:4438.9183-76.6389756318261Clb=5.8m/s p=71.6hPa t=-68.6C h=4.5% 405.300MHz Type=RS41-SGP rdzTTGOsonde
KB3ZOXU15303052022-12-06 16:41:2238.9178-76.6427905418115Clb=5.5m/s p=73.4hPa t=-68.5C h=4.3% 405.300MHz Type=RS41-SGP rdzTTGOsonde
KB3ZOXU15303052022-12-06 16:41:0038.9173-76.646884117978Clb=4.8m/s p=75.1hPa t=-68.6C h=4.4% 405.300MHz Type=RS41-SGP rdzTTGOsonde
KB3ZOXU15303052022-12-06 16:40:3738.9173-76.6488993317834Clb=6.1m/s p=76.8hPa t=-67.6C h=4.3% 405.300MHz Type=RS41-SGP rdzTTGOsonde
KB3ZOXU15303052022-12-06 16:40:1438.9175-76.65091103117697Clb=5.9m/s p=78.7hPa t=-66.9C h=4.2% 405.300MHz Type=RS41-SGP rdzTTGOsonde
KB3ZOXU15303052022-12-06 16:39:5138.9181-76.6532983117551Clb=4.6m/s p=80.5hPa t=-65.8C h=4.0% 405.300MHz Type=RS41-SGP rdzTTGOsonde
KB3ZOXU15303052022-12-06 16:39:3038.9187-76.65591085417416Clb=9.1m/s p=82.3hPa t=-66.5C h=4.4% 405.300MHz Type=RS41-SGP rdzTTGOsonde
KB3ZOXU15303052022-12-06 16:39:0638.9194-76.6604906717273Clb=5.3m/s p=84.3hPa t=-65.6C h=4.5% 405.300MHz Type=RS41-SGP rdzTTGOsonde
K4KDR-12U15303052022-12-06 16:38:5438.9197-76.6637917417178Clb=5.3m/s t=-66.1C h=4.8% p=85.7hPa 405.300 MHz Type=RS41-SGP ser=U1530305 Radiosonde
KB3ZOXU15303052022-12-06 16:38:4438.9198-76.6655938017132Clb=5.4m/s p=86.3hPa t=-66.2C h=4.9% 405.300MHz Type=RS41-SGP rdzTTGOsonde
KB3ZOXU15303052022-12-06 16:38:2338.9199-76.6708888116995Clb=6.1m/s p=88.3hPa t=-65.9C h=5.1% 405.300MHz Type=RS41-SGP rdzTTGOsonde
KB3ZOXU15303052022-12-06 16:38:0038.9201-76.67581056716845Clb=5.9m/s p=90.4hPa t=-66.3C h=5.3% 405.300MHz Type=RS41-SGP rdzTTGOsonde
K4KDR-12U15303052022-12-06 16:37:5338.9206-76.67811078016787Clb=7.8m/s t=-66.9C h=5.3% p=91.3hPa 405.300 MHz Type=RS41-SGP ser=U1530305 Radiosonde
KB3ZOXU15303052022-12-06 16:37:3738.9214-76.681610710016718Clb=5.5m/s p=92.3hPa t=-68.5C h=6.0% 405.300MHz Type=RS41-SGP rdzTTGOsonde
KB3ZOXU15303052022-12-06 16:37:1438.9228-76.689310110016603Clb=5.3m/s p=94.1hPa t=-69.5C h=6.1% 405.300MHz Type=RS41-SGP rdzTTGOsonde
KB3ZOXU15303052022-12-06 16:36:5438.9232-76.69559110016504Clb=3.6m/s p=95.7hPa t=-69.4C h=5.9% 405.300MHz Type=RS41-SGP rdzTTGOsonde
K4KDR-12U15303052022-12-06 16:36:5238.9235-76.7024939816401Clb=4.6m/s t=-69.5C h=5.7% p=97.3hPa 405.300 MHz Type=RS41-SGP ser=U1530305 Radiosonde
KB3ZOXU15303052022-12-06 16:36:3238.9235-76.70279410016396Clb=5.4m/s p=97.4hPa t=-69.6C h=5.8% 405.300MHz Type=RS41-SGP rdzTTGOsonde
KB3ZOXU15303052022-12-06 16:36:1138.9241-76.70939910916285Clb=6.0m/s p=99.2hPa t=-69.0C h=5.5% 405.300MHz Type=RS41-SGP rdzTTGOsonde
KB3ZOXU15303052022-12-06 16:35:4838.9248-76.71749611116159Clb=6.3m/s p=101.3hPa t=-68.9C h=5.3% 405.300MHz Type=RS41-SGP rdzTTGOsonde
KB3ZOXU15303052022-12-06 16:35:2738.9252-76.72459410016038Clb=7.0m/s p=103.4hPa t=-68.7C h=5.1% 405.300MHz Type=RS41-SGP rdzTTGOsonde
KB3ZOXU15303052022-12-06 16:35:0638.9251-76.73148710415916Clb=7.1m/s p=105.5hPa t=-69.3C h=5.1% 405.300MHz Type=RS41-SGP rdzTTGOsonde
K4KDR-12U15303052022-12-06 16:34:5038.925-76.737909315815Clb=4.7m/s t=-69.3C h=5.1% p=107.4hPa 405.300 MHz Type=RS41-SGP ser=U1530305 Radiosonde
KB3ZOXU15303052022-12-06 16:34:4338.925-76.7385919415785Clb=6.4m/s p=107.8hPa t=-69.3C h=5.1% 405.300MHz Type=RS41-SGP rdzTTGOsonde
KB3ZOXU15303052022-12-06 16:34:2238.9256-76.74481049315662Clb=7.4m/s p=110.1hPa t=-68.8C h=5.1% 405.300MHz Type=RS41-SGP rdzTTGOsonde
KB3ZOXU15303052022-12-06 16:34:0038.9266-76.75141009315536Clb=4.6m/s p=112.5hPa t=-68.5C h=5.2% 405.300MHz Type=RS41-SGP rdzTTGOsonde
K4KDR-12U15303052022-12-06 16:33:4938.9272-76.75531039115459Clb=4.4m/s t=-68.1C h=5.0% p=114.0hPa 405.300 MHz Type=RS41-SGP ser=U1530305 Radiosonde
KB3ZOXU15303052022-12-06 16:33:3038.9282-76.76041089415360Clb=7.3m/s p=115.8hPa t=-68.0C h=5.1% 405.300MHz Type=RS41-SGP rdzTTGOsonde
KB3ZOXU15303052022-12-06 16:33:0938.9296-76.767110210615234Clb=4.8m/s p=118.3hPa t=-67.2C h=4.9% 405.300MHz Type=RS41-SGP rdzTTGOsonde
KB3ZOXU15303052022-12-06 16:32:4938.9305-76.773910011315120Clb=6.1m/s p=120.5hPa t=-66.7C h=4.8% 405.300MHz Type=RS41-SGP rdzTTGOsonde
K4KDR-12U15303052022-12-06 16:32:4838.9307-76.774910310715104Clb=6.8m/s t=-66.5C h=4.8% p=120.8hPa 405.300 MHz Type=RS41-SGP ser=U1530305 Radiosonde
KB3ZOXU15303052022-12-06 16:32:2638.9319-76.78189910714994Clb=5.8m/s p=123.1hPa t=-65.8C h=4.7% 405.300MHz Type=RS41-SGP rdzTTGOsonde
KB3ZOXU15303052022-12-06 16:32:0538.9333-76.789110611714879Clb=5.0m/s p=125.5hPa t=-65.5C h=4.9% 405.300MHz Type=RS41-SGP rdzTTGOsonde
KB3ZOXU15303052022-12-06 16:31:4438.9351-76.796610912214762Clb=5.1m/s p=127.8hPa t=-65.1C h=5.4% 405.300MHz Type=RS41-SGP rdzTTGOsonde
KB3ZOXU15303052022-12-06 16:31:2338.9368-76.804410811514651Clb=6.4m/s p=130.2hPa t=-64.9C h=5.8% 405.300MHz Type=RS41-SGP rdzTTGOsonde
KB3ZOXU15303052022-12-06 16:31:0338.9384-76.811510311114542Clb=7.0m/s p=132.5hPa t=-64.3C h=5.5% 405.300MHz Type=RS41-SGP rdzTTGOsonde
K4KDR-12U15303052022-12-06 16:30:4638.9398-76.818410713314440Clb=3.9m/s t=-65.1C h=6.1% p=134.8hPa 405.300 MHz Type=RS41-SGP ser=U1530305 Radiosonde
KB3ZOXU15303052022-12-06 16:30:3638.9406-76.821511012814398Clb=4.6m/s p=135.7hPa t=-65.2C h=5.9% 405.300MHz Type=RS41-SGP rdzTTGOsonde
KB3ZOXU15303052022-12-06 16:30:1638.9432-76.829511313914274Clb=6.9m/s p=138.4hPa t=-64.9C h=6.1% 405.300MHz Type=RS41-SGP rdzTTGOsonde
KB3ZOXU15303052022-12-06 16:29:5538.9458-76.837811213514146Clb=8.0m/s p=141.3hPa t=-64.6C h=6.4% 405.300MHz Type=RS41-SGP rdzTTGOsonde
K4KDR-12U15303052022-12-06 16:29:4538.9472-76.842511212614068Clb=5.7m/s t=-64.2C h=6.6% p=143.1hPa 405.300 MHz Type=RS41-SGP ser=U1530305 Radiosonde
KB3ZOXU15303052022-12-06 16:29:3438.9483-76.846111213314013Clb=5.6m/s p=144.4hPa t=-63.8C h=6.6% 405.300MHz Type=RS41-SGP rdzTTGOsonde
KB3ZOXU15303052022-12-06 16:29:1438.9511-76.854311715013879Clb=8.2m/s p=147.6hPa t=-63.5C h=6.8% 405.300MHz Type=RS41-SGP rdzTTGOsonde
KB3ZOXU15303052022-12-06 16:28:5138.9545-76.864511415213725Clb=6.0m/s p=151.3hPa t=-62.7C h=6.7% 405.300MHz Type=RS41-SGP rdzTTGOsonde
K4KDR-12U15303052022-12-06 16:28:4438.957-76.871811313713625Clb=6.5m/s t=-61.9C h=-1.0% p=-1.0hPa 405.300 MHz Type=RS41 ser=U1530305 Radiosonde
KB3ZOXU15303052022-12-06 16:28:2738.9579-76.874711014113587Clb=7.7m/s p=154.7hPa t=-61.6C h=6.9% 405.300MHz Type=RS41-SGP rdzTTGOsonde
KB3ZOXU15303052022-12-06 16:28:0638.9604-76.883311413513465Clb=5.8m/s p=157.7hPa t=-61.9C h=8.4% 405.300MHz Type=RS41-SGP rdzTTGOsonde
KB3ZOXU15303052022-12-06 16:27:4638.9631-76.891811314413360Clb=6.3m/s p=160.4hPa t=-62.2C h=9.9% 405.300MHz Type=RS41-SGP rdzTTGOsonde
K4KDR-12U15303052022-12-06 16:27:4238.964-76.894511515013330Clb=5.1m/s t=-62.1C h=-1.0% p=-1.0hPa 405.300 MHz Type=RS41 ser=U1530305 Radiosonde
KB3ZOXU15303052022-12-06 16:27:2538.9661-76.901211515713251Clb=4.5m/s p=163.3hPa t=-61.7C h=10.9% 405.300MHz Type=RS41-SGP rdzTTGOsonde
KB3ZOXU15303052022-12-06 16:27:0338.9693-76.911611017013128Clb=6.3m/s p=166.5hPa t=-62.1C h=15.0% 405.300MHz Type=RS41-SGP rdzTTGOsonde
KB3ZOXU15303052022-12-06 16:26:4138.9724-76.922211115613008Clb=5.2m/s p=169.8hPa t=-62.1C h=19.2% 405.300MHz Type=RS41-SGP rdzTTGOsonde
KB3ZOXU15303052022-12-06 16:26:2138.975-76.931910715912899Clb=7.7m/s p=172.9hPa t=-62.8C h=27.1% 405.300MHz Type=RS41-SGP rdzTTGOsonde
KB3ZOXU15303052022-12-06 16:25:5738.9776-76.943110615212753Clb=6.2m/s p=177.0hPa t=-63.7C h=37.6% 405.300MHz Type=RS41-SGP rdzTTGOsonde
KB3ZOXU15303052022-12-06 16:25:3038.9806-76.95510714312565Clb=6.3m/s p=182.4hPa t=-64.1C h=46.6% 405.300MHz Type=RS41-SGP rdzTTGOsonde
KB3ZOXU15303052022-12-06 16:22:3039.0026-77.035910615011415Clb=8.5m/s p=219.6hPa t=-58.5C h=56.8% 405.300MHz Type=RS41-SGP rdzTTGOsonde
K4KDR-12U15303052022-12-06 16:21:3639.0088-77.060411013911076Clb=7.1m/s t=-273.0C h=-1.0% p=-1.0hPa 405.300 MHz Type=RS41-SGP ser=U1530305 Radiosonde
KB3ZOXU15303052022-12-06 16:21:1839.0106-77.06810314310962Clb=10.1m/s p=235.6hPa t=-55.2C h=61.7% 405.300MHz Type=RS41-SGP rdzTTGOsonde
KB3ZOXU15303052022-12-06 16:20:5539.0131-77.078210114310779Clb=6.1m/s p=242.7hPa t=-53.8C h=62.6% 405.300MHz Type=RS41-SGP rdzTTGOsonde
KB3ZOXU15303052022-12-06 16:20:2939.0155-77.0910414110595Clb=7.3m/s p=249.7hPa t=-52.2C h=57.6% 405.300MHz Type=RS41-SGP rdzTTGOsonde
KB3ZOXU15303052022-12-06 16:20:0939.0174-77.099310213710465Clb=6.0m/s p=254.8hPa t=-51.1C h=59.6% 405.300MHz Type=RS41-SGP rdzTTGOsonde
KB3ZOXU15303052022-12-06 16:19:4939.0188-77.108210215610333Clb=6.6m/s p=259.9hPa t=-49.9C h=59.6% 405.300MHz Type=RS41-SGP rdzTTGOsonde
KB3ZOXU15303052022-12-06 16:19:2239.0208-77.120210813510132Clb=8.2m/s p=267.9hPa t=-48.3C 405.300MHz Type=RS41-SGP rdzTTGOsonde
KB3ZOXU15303052022-12-06 16:19:0139.0223-77.12921031249983Clb=3.6m/s p=274.0hPa 405.300MHz Type=RS41-SGP rdzTTGOsonde
KB3ZOXU15303052022-12-06 16:18:4139.0235-77.138971399840Clb=7.3m/s 405.300MHz Type=RS41-SGP rdzTTGOsonde
KB3ZOXU15303052022-12-06 16:18:2039.0248-77.1468971309695Clb=7.2m/s 405.300MHz Type=RS41-SGP rdzTTGOsonde
KB3ZOXU15303052022-12-06 16:17:5839.0263-77.15591031419556Clb=7.7m/s 405.300MHz Type=RS41 rdzTTGOsonde
KB3ZOXU15303052022-12-06 16:17:3739.0276-77.1652941339426Clb=5.7m/s 405.300MHz Type=RS41 rdzTTGOsonde
KB3ZOXU15303052022-12-06 16:17:1339.0289-77.17561001229267Clb=8.7m/s 405.300MHz Type=RS41 rdzTTGOsonde
KB3ZOXU15303052022-12-06 16:16:5339.0302-77.18361011319138Clb=10.6m/s 405.300MHz Type=RS41 rdzTTGOsonde
KB3ZOXU15303052022-12-06 16:16:2939.0315-77.1923961158983Clb=4.6m/s 405.300MHz Type=RS41 rdzTTGOsonde
KB3ZOXU15303052022-12-06 16:15:5939.033-77.2037911208779Clb=4.1m/s 405.300MHz Type=RS41 rdzTTGOsonde